This is the latest recevied weather packets stored in our database for station/object K4ROM-1. If no packets are shown the sender has not sent any weather packets the latest 10 day(s).
| Time | Temp. | Humidity | Pressure | Rain* | Wind** | Luminosity | Snow |
|---|---|---|---|---|---|---|---|
| 1777936803 | 23.33° C | 31% | 1014.9 hPa | 0 mm | 0 m/s | - | - |
| 1777936202 | 23.89° C | 30% | 1014.7 hPa | 0 mm | 0.45 m/s, 254° | - | - |
| 1777935603 | 24.44° C | 29% | 1014.3 hPa | 0 mm | 0 m/s | - | - |
| 1777935003 | 24.44° C | 28% | 1014.3 hPa | 0 mm | 0 m/s | - | - |
| 1777934404 | 25° C | 28% | 1014.5 hPa | 0 mm | 0.45 m/s, 271° | - | - |
| 1777933803 | 25.56° C | 27% | 1014.5 hPa | 0 mm | 0 m/s | - | - |
| 1777933203 | 26.11° C | 27% | 1014.5 hPa | 0 mm | 0.45 m/s, 287° | - | - |
| 1777932602 | 26.11° C | 26% | 1014.4 hPa | 0 mm | 0.45 m/s, 227° | - | - |
| 1777932003 | 26.11° C | 28% | 1014.4 hPa | 0 mm | 1.34 m/s, 243° | - | - |
| 1777931403 | 26.11° C | 28% | 1014.5 hPa | 0 mm | 0 m/s | - | - |
| 1777930803 | 25.56° C | 28% | 1014.6 hPa | 0 mm | 0.89 m/s, 229° | - | - |
| 1777930203 | 26.11° C | 27% | 1014.6 hPa | 0 mm | 0.89 m/s, 225° | - | - |
| 1777929603 | 26.11° C | 27% | 1014.4 hPa | 0 mm | 0.89 m/s, 241° | - | - |
| 1777929003 | 26.11° C | 26% | 1014.6 hPa | 0 mm | 0.89 m/s, 267° | - | - |
| 1777928403 | 26.11° C | 29% | 1014.7 hPa | 0 mm | 0.89 m/s, 240° | - | - |
| 1777927803 | 26.11° C | 27% | 1014.9 hPa | 0 mm | 1.79 m/s, 239° | - | - |
| 1777927203 | 26.11° C | 28% | 1014.9 hPa | 0 mm | 0.45 m/s, 163° | - | - |
| 1777926603 | 26.11° C | 28% | 1015.1 hPa | 0 mm | 1.34 m/s, 221° | - | - |
| 1777926003 | 26.67° C | 28% | 1015.2 hPa | 0 mm | 0.45 m/s, 219° | - | - |
| 1777925403 | 25.56° C | 28% | 1015.3 hPa | 0 mm | 0 m/s | - | - |
| 1777924803 | 26.11° C | 29% | 1015.5 hPa | 0 mm | 1.34 m/s, 211° | - | - |
| 1777924203 | 26.67° C | 29% | 1015.4 hPa | 0 mm | 0.45 m/s, 266° | - | - |
| 1777923603 | 26.67° C | 31% | 1015.4 hPa | 0 mm | 0 m/s | - | - |
| 1777923003 | 26.11° C | 30% | 1015.7 hPa | 0 mm | 0 m/s | - | - |
| 1777922403 | 26.11° C | 30% | 1015.8 hPa | 0 mm | 0.45 m/s, 271° | - | - |
* Rain latest hour (hover to see other rain measurements)
** Current wind speed in m/s (hover to see current wind gust speed)